メインページ
METAR-TAF:

METAR-TAF

空港 :

ラルナカ, キプロス

ラルナカ国際空港

緯度: 34-53N, 経度: 033-38E, 海抜: 2m

現時点の気象観測

当レポートは15分前の09:30(UTC)に作成
の風 12kt
気温 21°C
湿度 56%
気圧 1017 hPa
視程10km以上
1,500メートル以下は雲なし、積乱雲なし

METAR: LCLK 250930Z 18012KT CAVOK 21/12 Q1017 NOSIG

時間: 11:45 (09:45 UTC)

予報

当レポートは4時間15分前の05:30(UTC)に作成
予報は25日の 06時(UTC)から 26日の 06時(UTC)まで有効
北西の風 6kt
視程10km以上
1,500メートル以下は雲なし、積乱雲なし
25日の 09時(UTC)から 25日の 12時(UTC)まで徐々に
南/南西の風 12kt
25日の 17時(UTC)から 25日の 20時(UTC)まで徐々に
北西の風 6kt

TAF: LCLK 250530Z 2506/2606 31006KT CAVOK BECMG 2509/2512 21012KT BECMG 2517/2520 31006KT

4,000以上の空港の気象観測と天気予報(METAR報とTAF報)

利用可能な観測所は地図上に黄色い丸と赤い丸で示す。

丸の上にカーソルを重ねると観測所名を参照できる。

次にクリックすると気象観測と天気予報を参照できる。

マップの切り替え:黒色「×」印の緑ボタンをクリックして拡大、「-」印の緑ボタンをクリックして縮小、緑色の三角印をクリックして隣りの地図に切り替え


METAR-TAF: